createdAt,value
2019-06-15T00:07:06.000Z,25.4
2019-06-15T00:17:08.000Z,25.4
2019-06-15T00:27:06.000Z,25.35
2019-06-15T00:37:06.000Z,25.34
2019-06-15T00:47:06.000Z,25.31
2019-06-15T00:57:06.000Z,25.28
2019-06-15T01:07:06.000Z,25.26
2019-06-15T01:17:06.000Z,25.24
2019-06-15T01:27:09.000Z,25.21
2019-06-15T01:37:06.000Z,25.19
2019-06-15T01:47:06.000Z,25.17
2019-06-15T01:57:06.000Z,25.12
2019-06-15T02:07:06.000Z,25.12
2019-06-15T02:17:06.000Z,25.1
2019-06-15T02:27:07.000Z,25.08
2019-06-15T02:37:06.000Z,25.07
2019-06-15T02:47:06.000Z,25.05
2019-06-15T02:57:06.000Z,25.02
2019-06-15T03:07:08.000Z,25.01
2019-06-15T03:17:09.000Z,24.99
2019-06-15T03:27:09.000Z,24.98
2019-06-15T03:37:06.000Z,24.95
2019-06-15T03:47:08.000Z,24.94
2019-06-15T03:57:10.000Z,24.94
2019-06-15T04:07:06.000Z,24.93
2019-06-15T04:17:06.000Z,24.93
2019-06-15T04:27:06.000Z,24.92
2019-06-15T04:37:06.000Z,24.93
2019-06-15T04:47:06.000Z,24.92
2019-06-15T04:57:06.000Z,24.93
2019-06-15T05:17:06.000Z,24.94
2019-06-15T05:27:06.000Z,24.95
2019-06-15T05:37:06.000Z,24.95
2019-06-15T05:47:06.000Z,24.92
2019-06-15T05:57:06.000Z,24.94
2019-06-15T06:07:06.000Z,24.94
2019-06-15T06:17:09.000Z,24.92
2019-06-15T06:27:06.000Z,24.91
2019-06-15T06:37:06.000Z,24.92
2019-06-15T06:47:07.000Z,24.91
2019-06-15T06:57:08.000Z,24.94
2019-06-15T07:07:07.000Z,24.93
2019-06-15T07:17:08.000Z,24.95
2019-06-15T07:27:07.000Z,24.96
2019-06-15T07:37:08.000Z,24.99
2019-06-15T07:47:08.000Z,25.04
2019-06-15T07:57:07.000Z,25.04
2019-06-15T08:07:07.000Z,25.05
2019-06-15T08:17:07.000Z,25.01
2019-06-15T08:27:07.000Z,25
2019-06-15T08:37:07.000Z,25.01
2019-06-15T08:47:07.000Z,24.96
2019-06-15T08:57:07.000Z,24.95
2019-06-15T09:07:09.000Z,24.94
2019-06-15T09:17:08.000Z,24.94
2019-06-15T09:27:09.000Z,24.94
2019-06-15T09:37:08.000Z,24.86
2019-06-15T09:47:07.000Z,24.95
2019-06-15T09:57:09.000Z,24.94
2019-06-15T10:07:07.000Z,24.96
2019-06-15T10:17:08.000Z,24.98
2019-06-15T10:27:07.000Z,25.11
2019-06-15T10:37:08.000Z,25.13
2019-06-15T10:47:08.000Z,25.13
2019-06-15T10:57:11.000Z,25.16
2019-06-15T11:07:07.000Z,25.06
2019-06-15T11:17:08.000Z,25.08
2019-06-15T11:27:07.000Z,25.06
2019-06-15T11:37:08.000Z,25.07
2019-06-15T11:47:08.000Z,25.13
2019-06-15T11:57:07.000Z,25.19
2019-06-15T12:07:08.000Z,25.24
2019-06-15T12:17:08.000Z,25.26
2019-06-15T12:27:07.000Z,25.29
2019-06-15T12:47:07.000Z,25.29
2019-06-15T12:57:08.000Z,25.32
2019-06-15T13:07:07.000Z,25.35
2019-06-15T13:17:07.000Z,25.35
2019-06-15T13:27:07.000Z,25.38
2019-06-15T13:37:08.000Z,25.4
2019-06-15T13:47:08.000Z,25.41
2019-06-15T13:57:10.000Z,25.42
2019-06-15T14:07:07.000Z,25.42
2019-06-15T14:17:07.000Z,25.41
2019-06-15T14:27:08.000Z,25.39
2019-06-15T14:37:07.000Z,25.42
2019-06-15T14:47:08.000Z,25.45
2019-06-15T14:57:09.000Z,25.42
2019-06-15T15:07:09.000Z,25.47
2019-06-15T15:17:13.000Z,25.47
2019-06-15T15:27:10.000Z,25.45
2019-06-15T15:37:09.000Z,25.48
2019-06-15T15:47:08.000Z,25.48
2019-06-15T15:57:08.000Z,25.47
2019-06-15T16:07:08.000Z,25.45
2019-06-15T16:17:08.000Z,25.47
2019-06-15T16:27:08.000Z,25.47
2019-06-15T16:37:09.000Z,25.45
2019-06-15T16:47:10.000Z,25.43
2019-06-15T16:57:08.000Z,25.48
2019-06-15T17:07:08.000Z,25.5
2019-06-15T17:17:09.000Z,25.48
2019-06-15T17:27:08.000Z,25.47
2019-06-15T17:47:08.000Z,25.38
2019-06-15T18:07:08.000Z,25.37
2019-06-15T18:27:08.000Z,25.38
2019-06-15T18:37:08.000Z,25.33
2019-06-15T18:47:10.000Z,25.33
2019-06-15T19:07:11.000Z,25.29
2019-06-15T19:17:12.000Z,25.26
2019-06-15T19:27:08.000Z,25.18
2019-06-15T19:47:08.000Z,25.15
2019-06-15T20:07:09.000Z,25.06
2019-06-15T20:27:09.000Z,24.97
